Appleton, Washington
Current Conditions -  °F | °C
As of 12:53 AM on Wednesday 26 Nov 2014 (Local Time) from KDLS Reporting Station
Overcast Overcast  
Wind Chill: 58°   Ceiling: 6000
Heat Index: 58°   Visibility: 10mi
Dew Point: 50°   Wind: 6mph
Humidity: 75%   Direction: 340°NNW
Pressure: 30.22"   Gusts: NA
Location:  45.81°N, 121.27°W
Report Text: KDLS 260853Z AUTO 34005KT 10SM OVC060 14/10 A3022 RMK AO2 SLP233 T01440100 50001
Loading
Personal Weather Stations






























Interactive Weather Map New forecast layout! Learn more

10-Day Weather Forecast

Advertisements
Track Severe Weather on mobile